createdAt,value
2018-05-29T00:00:54.233Z,29.17
2018-05-29T00:03:26.248Z,29.15
2018-05-29T00:05:58.506Z,29.20
2018-05-29T00:08:30.263Z,29.32
2018-05-29T00:11:02.281Z,29.38
2018-05-29T00:13:34.645Z,29.36
2018-05-29T00:18:57.477Z,29.52
2018-05-29T00:21:29.278Z,29.55
2018-05-29T00:24:01.194Z,29.59
2018-05-29T00:26:33.136Z,29.59
2018-05-29T00:29:05.249Z,29.67
2018-05-29T00:31:38.470Z,29.67
2018-05-29T00:36:50.568Z,29.78
2018-05-29T00:39:22.542Z,29.68
2018-05-29T00:41:55.671Z,29.61
2018-05-29T00:47:15.430Z,29.64
2018-05-29T00:49:47.092Z,29.59
2018-05-29T00:52:20.238Z,29.54
2018-05-29T00:55:03.244Z,29.52
2018-05-29T01:01:01.588Z,29.58
2018-05-29T01:03:37.725Z,29.53
2018-05-29T01:06:10.517Z,29.54
2018-05-29T01:08:42.290Z,29.62
2018-05-29T01:12:41.131Z,29.70
2018-05-29T01:15:14.431Z,29.77
2018-05-29T01:17:46.233Z,29.89
2018-05-29T01:20:18.265Z,29.93
2018-05-29T01:22:50.259Z,29.95
2018-05-29T01:25:22.249Z,30.00
2018-05-29T01:27:54.297Z,30.06
2018-05-29T01:30:26.232Z,29.99
2018-05-29T01:32:58.264Z,30.03
2018-05-29T01:35:30.282Z,30.31
2018-05-29T01:38:03.623Z,30.22
2018-05-29T01:40:35.255Z,30.88
2018-05-29T01:43:07.254Z,31.32
2018-05-29T01:45:39.257Z,31.69
2018-05-29T01:48:11.283Z,31.42
2018-05-29T01:50:43.316Z,31.73
2018-05-29T01:53:15.297Z,31.77
2018-05-29T01:55:47.323Z,31.93
2018-05-29T01:58:19.258Z,31.80
2018-05-29T02:00:51.275Z,31.68
2018-05-29T02:03:23.296Z,31.89
2018-05-29T02:05:55.243Z,31.95
2018-05-29T02:08:27.241Z,31.90
2018-05-29T02:11:00.230Z,32.12
2018-05-29T02:13:32.260Z,32.25
2018-05-29T02:18:58.826Z,32.00
2018-05-29T02:24:00.908Z,31.97
2018-05-29T02:26:33.029Z,31.82
2018-05-29T02:31:56.643Z,31.92
2018-05-29T02:34:28.578Z,32.12
2018-05-29T02:37:01.291Z,32.45
2018-05-29T02:39:33.261Z,32.50
2018-05-29T02:42:05.256Z,32.43
2018-05-29T02:47:31.985Z,32.27
2018-05-29T02:50:04.570Z,32.39
2018-05-29T02:55:09.482Z,32.23
2018-05-29T02:57:41.218Z,32.22
2018-05-29T03:00:13.235Z,32.36
2018-05-29T03:02:45.243Z,32.43
2018-05-29T03:05:17.253Z,32.43
2018-05-29T03:07:49.176Z,32.41
2018-05-29T03:10:22.229Z,32.51
2018-05-29T03:12:54.237Z,32.65
2018-05-29T03:15:26.255Z,32.64
2018-05-29T03:17:58.274Z,32.76
2018-05-29T03:20:30.248Z,32.89
2018-05-29T03:23:02.222Z,33.16
2018-05-29T03:25:34.278Z,33.29
2018-05-29T03:28:06.251Z,33.56
2018-05-29T03:30:38.247Z,33.45
2018-05-29T03:33:10.253Z,33.54
2018-05-29T03:35:42.287Z,33.64
2018-05-29T03:38:14.232Z,33.99
2018-05-29T03:40:46.258Z,33.79
2018-05-29T03:43:18.248Z,33.84
2018-05-29T03:45:50.237Z,34.14
2018-05-29T03:48:22.505Z,34.61
2018-05-29T03:50:55.508Z,34.50
2018-05-29T03:53:27.418Z,34.45
2018-05-29T03:55:59.270Z,34.57
2018-05-29T03:58:31.246Z,35.28
2018-05-29T04:01:03.308Z,35.60
2018-05-29T04:03:35.260Z,34.98
2018-05-29T04:06:07.233Z,35.09
2018-05-29T04:08:39.260Z,35.91
2018-05-29T04:11:11.262Z,35.61
2018-05-29T04:13:43.277Z,35.60
2018-05-29T04:16:15.270Z,35.53
2018-05-29T04:18:47.238Z,35.27
2018-05-29T04:21:19.445Z,35.81
2018-05-29T04:23:51.259Z,35.86
2018-05-29T04:26:23.226Z,35.62
2018-05-29T04:28:55.233Z,35.67
2018-05-29T04:31:27.289Z,35.17
2018-05-29T04:33:59.270Z,35.78
2018-05-29T04:36:31.273Z,35.65
2018-05-29T04:39:03.280Z,35.76
2018-05-29T04:41:35.299Z,35.97
2018-05-29T04:44:07.326Z,35.97
2018-05-29T04:46:39.256Z,35.92
2018-05-29T04:49:11.499Z,35.70
2018-05-29T04:51:43.547Z,36.17
2018-05-29T04:54:15.586Z,36.05
2018-05-29T04:56:48.436Z,36.19
2018-05-29T04:59:20.634Z,36.50
2018-05-29T05:01:51.415Z,36.81
2018-05-29T05:04:23.543Z,36.83
2018-05-29T05:06:55.542Z,37.02
2018-05-29T05:09:27.545Z,37.45
2018-05-29T05:11:59.546Z,37.31
2018-05-29T05:14:30.351Z,37.53
2018-05-29T05:17:02.547Z,37.73
2018-05-29T05:19:35.500Z,37.88
2018-05-29T05:22:06.364Z,38.19
2018-05-29T05:24:37.111Z,37.93
2018-05-29T05:27:10.835Z,38.39
2018-05-29T05:29:43.270Z,38.30
2018-05-29T05:32:15.544Z,38.72
2018-05-29T05:34:47.598Z,38.43
2018-05-29T05:37:18.389Z,38.31
2018-05-29T05:39:51.267Z,38.87
2018-05-29T05:42:23.251Z,39.00
2018-05-29T05:44:55.239Z,39.22
2018-05-29T05:47:27.718Z,39.37
2018-05-29T05:51:04.241Z,39.45
2018-05-29T05:53:36.245Z,39.37
2018-05-29T05:56:10.248Z,39.24
2018-05-29T05:58:42.235Z,38.85
2018-05-29T06:01:14.221Z,39.55
2018-05-29T06:03:46.235Z,40.51
2018-05-29T06:06:18.218Z,39.43
2018-05-29T06:08:50.243Z,40.07
2018-05-29T06:11:22.265Z,40.91
2018-05-29T06:16:14.710Z,40.77
2018-05-29T06:18:46.573Z,40.39
2018-05-29T06:21:17.055Z,40.32
2018-05-29T06:23:49.219Z,40.49
2018-05-29T06:26:21.234Z,40.26
2018-05-29T06:28:53.224Z,40.24
2018-05-29T06:31:25.235Z,40.17
2018-05-29T06:33:57.237Z,40.22
2018-05-29T06:36:29.491Z,40.22
2018-05-29T06:39:01.296Z,40.34
2018-05-29T06:41:33.319Z,40.41
2018-05-29T06:44:05.583Z,40.41
2018-05-29T06:46:36.332Z,40.46
2018-05-29T06:49:07.968Z,40.53
2018-05-29T06:51:40.289Z,40.68
2018-05-29T06:54:12.506Z,40.56
2018-05-29T06:56:44.482Z,40.66
2018-05-29T06:59:16.269Z,40.64
2018-05-29T07:01:48.290Z,40.74
2018-05-29T07:04:19.120Z,40.79
2018-05-29T07:06:51.547Z,40.82
2018-05-29T07:09:32.530Z,40.94
2018-05-29T07:12:03.365Z,40.96
2018-05-29T07:14:35.632Z,41.13
2018-05-29T07:17:07.549Z,41.12
2018-05-29T07:19:39.616Z,41.17
2018-05-29T07:22:12.550Z,41.30
2018-05-29T07:24:43.303Z,41.18
2018-05-29T07:27:14.143Z,41.32
2018-05-29T07:29:46.052Z,41.30
2018-05-29T07:32:18.523Z,41.32
2018-05-29T07:37:03.630Z,41.18
2018-05-29T07:39:42.641Z,41.22
2018-05-29T07:42:22.515Z,41.25
2018-05-29T07:45:03.540Z,41.29
2018-05-29T07:47:45.548Z,41.25
2018-05-29T07:50:27.546Z,41.27
2018-05-29T07:53:10.099Z,41.30
2018-05-29T07:55:53.269Z,41.41
2018-05-29T07:58:25.539Z,41.49
2018-05-29T08:00:56.588Z,41.34
2018-05-29T08:03:29.082Z,41.38
2018-05-29T08:06:01.549Z,41.46
2018-05-29T08:08:32.915Z,41.60
2018-05-29T08:11:05.555Z,41.70
2018-05-29T08:13:38.517Z,41.76
2018-05-29T08:16:10.530Z,41.61
2018-05-29T08:18:42.531Z,41.75
2018-05-29T08:21:14.577Z,41.81
2018-05-29T08:23:46.528Z,42.15
2018-05-29T08:26:18.642Z,42.10
2018-05-29T08:28:50.548Z,42.31
2018-05-29T08:31:22.307Z,42.43
2018-05-29T08:33:54.515Z,42.34
2018-05-29T08:36:26.248Z,42.57
2018-05-29T08:38:58.250Z,42.76
2018-05-29T08:41:30.490Z,42.70
2018-05-29T08:44:02.515Z,42.72
2018-05-29T08:46:34.617Z,42.69
2018-05-29T08:49:06.743Z,42.89
2018-05-29T08:51:38.614Z,42.92
2018-05-29T08:54:10.535Z,42.93
2018-05-29T08:56:41.106Z,42.81
2018-05-29T08:59:13.499Z,42.93
2018-05-29T09:06:07.717Z,42.97
2018-05-29T09:08:39.569Z,43.00
2018-05-29T09:11:10.078Z,43.08
2018-05-29T09:13:41.590Z,43.27
2018-05-29T09:16:12.485Z,43.15
2018-05-29T09:21:24.625Z,43.26
2018-05-29T09:23:56.759Z,43.50
2018-05-29T09:26:28.630Z,43.31
2018-05-29T09:28:59.390Z,43.28
2018-05-29T09:34:38.896Z,43.11
2018-05-29T09:37:10.626Z,43.33
2018-05-29T09:39:42.555Z,43.46
2018-05-29T09:42:14.630Z,43.52
2018-05-29T09:44:46.497Z,43.35
2018-05-29T09:47:17.104Z,43.24
2018-05-29T09:49:49.516Z,43.39
2018-05-29T09:52:20.368Z,43.36
2018-05-29T09:55:51.893Z,43.37
2018-05-29T09:58:23.630Z,43.34
2018-05-29T10:00:56.503Z,43.57
2018-05-29T10:03:27.399Z,43.69
2018-05-29T10:08:21.090Z,43.52
2018-05-29T10:10:53.536Z,43.54
2018-05-29T10:13:24.555Z,43.65
2018-05-29T10:18:26.734Z,43.56
2018-05-29T10:20:58.631Z,43.60
2018-05-29T10:23:29.607Z,43.49
2018-05-29T10:26:01.542Z,43.75
2018-05-29T10:28:32.334Z,43.83
2018-05-29T10:31:04.258Z,43.82
2018-05-29T10:33:36.270Z,43.87
2018-05-29T10:36:08.361Z,43.55
2018-05-29T10:38:41.758Z,44.03
2018-05-29T10:41:13.616Z,44.11
2018-05-29T10:43:44.381Z,43.65
2018-05-29T10:49:04.940Z,44.73
2018-05-29T10:51:37.528Z,44.12
2018-05-29T10:54:09.536Z,43.97
2018-05-29T10:56:42.285Z,45.02
2018-05-29T10:59:14.577Z,45.16
2018-05-29T11:01:46.652Z,44.95
2018-05-29T11:04:18.551Z,44.17
2018-05-29T11:06:49.434Z,44.95
2018-05-29T11:09:22.554Z,45.07
2018-05-29T11:11:54.836Z,45.19
2018-05-29T11:14:28.620Z,45.24
2018-05-29T11:17:00.987Z,45.13
2018-05-29T11:19:33.529Z,45.19
2018-05-29T11:22:47.508Z,45.02
2018-05-29T11:26:17.942Z,45.03
2018-05-29T11:28:50.520Z,45.09
2018-05-29T11:32:15.599Z,45.16
2018-05-29T11:34:46.406Z,45.20
2018-05-29T11:37:18.653Z,44.92
2018-05-29T11:39:49.530Z,44.79
2018-05-29T11:42:20.377Z,45.00
2018-05-29T11:44:52.612Z,44.89
2018-05-29T11:47:23.311Z,45.44
2018-05-29T11:49:55.532Z,45.26
2018-05-29T11:52:27.537Z,44.96
2018-05-29T11:54:58.125Z,45.15
2018-05-29T11:57:30.255Z,45.23
2018-05-29T12:00:02.282Z,44.81
2018-05-29T12:02:34.336Z,45.80
2018-05-29T12:05:07.559Z,45.66
2018-05-29T12:07:38.092Z,45.57
2018-05-29T12:10:10.230Z,45.27
2018-05-29T12:12:43.523Z,45.61
2018-05-29T12:15:15.253Z,45.66
2018-05-29T12:17:47.249Z,45.71
2018-05-29T12:20:19.228Z,45.78
2018-05-29T12:22:51.225Z,45.77
2018-05-29T12:25:23.237Z,45.77
2018-05-29T12:27:55.246Z,45.87
2018-05-29T12:30:28.575Z,45.85
2018-05-29T12:32:59.355Z,45.79
2018-05-29T12:35:32.579Z,45.77
2018-05-29T12:38:03.094Z,45.63
2018-05-29T12:40:35.233Z,45.77
2018-05-29T12:44:48.703Z,45.95
2018-05-29T12:47:20.558Z,46.02
2018-05-29T12:52:12.855Z,46.01
2018-05-29T12:54:46.713Z,46.23
2018-05-29T12:57:18.600Z,45.71
2018-05-29T12:59:49.368Z,46.18
2018-05-29T13:05:09.882Z,45.88
2018-05-29T13:07:41.566Z,46.37
2018-05-29T13:10:13.259Z,46.41
2018-05-29T13:12:45.253Z,45.85
2018-05-29T13:15:18.273Z,46.38
2018-05-29T13:17:50.252Z,45.50
2018-05-29T13:20:22.253Z,46.26
2018-05-29T13:22:55.874Z,46.25
2018-05-29T13:27:03.299Z,45.97
2018-05-29T13:29:35.278Z,46.16
2018-05-29T13:32:07.509Z,45.88
2018-05-29T13:34:39.597Z,45.81
2018-05-29T13:37:12.769Z,45.84
2018-05-29T13:39:46.536Z,46.34
2018-05-29T13:42:18.264Z,46.06
2018-05-29T13:44:50.289Z,46.67
2018-05-29T13:47:24.504Z,46.75
2018-05-29T13:49:56.251Z,46.71
2018-05-29T13:52:28.274Z,46.50
2018-05-29T13:55:01.844Z,46.75
2018-05-29T13:58:17.241Z,46.86
2018-05-29T14:00:49.239Z,46.78
2018-05-29T14:03:21.294Z,46.53
2018-05-29T14:05:53.259Z,46.73
2018-05-29T14:08:25.287Z,46.67
2018-05-29T14:10:57.270Z,46.67
2018-05-29T14:13:30.580Z,46.54
2018-05-29T14:16:01.401Z,46.71
2018-05-29T14:18:34.489Z,46.87
2018-05-29T14:21:06.264Z,46.97
2018-05-29T14:23:38.239Z,46.88
2018-05-29T14:26:10.252Z,46.72
2018-05-29T14:28:42.234Z,46.98
2018-05-29T14:34:05.803Z,47.22
2018-05-29T14:36:37.575Z,47.04
2018-05-29T14:39:08.375Z,47.14
2018-05-29T14:41:40.231Z,47.21
2018-05-29T14:44:12.272Z,47.18
2018-05-29T14:46:43.909Z,47.21
2018-05-29T14:49:15.554Z,47.19
2018-05-29T14:51:47.416Z,47.19
2018-05-29T14:54:19.262Z,47.29
2018-05-29T14:56:51.241Z,47.14
2018-05-29T14:59:24.883Z,47.40
2018-05-29T15:01:58.662Z,47.21
2018-05-29T15:05:17.216Z,47.80
2018-05-29T15:08:34.247Z,48.17
2018-05-29T15:11:07.701Z,48.22
2018-05-29T15:13:41.565Z,48.00
2018-05-29T15:16:13.773Z,47.86
2018-05-29T15:18:47.690Z,47.73
2018-05-29T15:21:21.566Z,47.67
2018-05-29T15:23:56.225Z,47.71
2018-05-29T15:26:30.559Z,47.64
2018-05-29T15:29:04.602Z,47.66
2018-05-29T15:31:36.501Z,47.64
2018-05-29T15:34:09.732Z,47.60
2018-05-29T15:36:43.744Z,47.84
2018-05-29T15:39:17.551Z,47.65
2018-05-29T15:41:51.728Z,47.58
2018-05-29T15:44:25.223Z,47.52
2018-05-29T15:46:58.753Z,47.41
2018-05-29T15:49:32.214Z,47.38
2018-05-29T15:52:06.639Z,47.28
2018-05-29T15:54:40.259Z,47.05
2018-05-29T15:57:13.545Z,47.08
2018-05-29T15:59:47.446Z,47.24
2018-05-29T16:02:20.777Z,47.15
2018-05-29T16:04:54.326Z,47.26
2018-05-29T16:07:28.818Z,47.19
2018-05-29T16:10:02.220Z,46.96
2018-05-29T16:12:35.482Z,47.16
2018-05-29T16:15:08.489Z,46.87
2018-05-29T16:17:41.776Z,46.64
2018-05-29T16:20:15.527Z,46.74
2018-05-29T16:22:48.522Z,46.70
2018-05-29T16:25:21.531Z,46.72
2018-05-29T16:27:54.753Z,46.57
2018-05-29T16:30:28.962Z,46.51
2018-05-29T16:33:02.775Z,46.45
2018-05-29T16:35:36.553Z,46.26
2018-05-29T16:38:08.505Z,46.46
2018-05-29T16:40:41.750Z,46.44
2018-05-29T16:43:15.599Z,46.30
2018-05-29T16:45:47.510Z,46.39
2018-05-29T16:48:20.908Z,46.26
2018-05-29T16:50:54.253Z,46.14
2018-05-29T16:53:27.511Z,46.03
2018-05-29T16:56:00.855Z,46.08
2018-05-29T16:58:34.509Z,46.00
2018-05-29T17:01:07.493Z,45.99
2018-05-29T17:03:40.324Z,46.15
2018-05-29T17:06:14.540Z,46.19
2018-05-29T17:08:47.859Z,46.19
2018-05-29T17:11:20.632Z,46.27
2018-05-29T17:13:54.534Z,46.03
2018-05-29T17:16:27.611Z,46.09
2018-05-29T17:18:59.960Z,46.03
2018-05-29T17:21:33.529Z,45.93
2018-05-29T17:24:07.676Z,45.87
2018-05-29T17:26:39.877Z,45.78
2018-05-29T17:29:12.752Z,45.79
2018-05-29T17:31:46.282Z,45.96
2018-05-29T17:34:17.925Z,45.73
2018-05-29T17:36:51.543Z,45.72
2018-05-29T17:39:25.607Z,45.75
2018-05-29T17:41:58.621Z,45.79
2018-05-29T17:46:14.627Z,45.60
2018-05-29T17:48:46.708Z,45.57
2018-05-29T17:51:19.923Z,45.52
2018-05-29T17:53:52.581Z,45.52
2018-05-29T17:56:24.854Z,45.30
2018-05-29T17:59:41.594Z,45.30
2018-05-29T18:02:13.935Z,45.24
2018-05-29T18:04:47.509Z,45.21
2018-05-29T18:09:02.849Z,45.06
2018-05-29T18:11:36.695Z,45.00
2018-05-29T18:14:10.557Z,44.89
2018-05-29T18:16:42.805Z,44.81
2018-05-29T18:19:16.573Z,44.74
2018-05-29T18:21:48.872Z,44.47
2018-05-29T18:24:22.661Z,44.39
2018-05-29T18:26:54.756Z,44.36
2018-05-29T18:29:28.484Z,44.30
2018-05-29T18:32:02.815Z,43.98
2018-05-29T18:34:36.257Z,43.88
2018-05-29T18:37:09.786Z,43.81
2018-05-29T18:39:43.799Z,43.57
2018-05-29T18:42:17.581Z,43.19
2018-05-29T18:44:50.420Z,43.06
2018-05-29T18:47:23.654Z,42.91
2018-05-29T18:49:56.909Z,42.79
2018-05-29T18:52:30.813Z,42.53
2018-05-29T18:55:04.590Z,42.31
2018-05-29T18:57:38.496Z,42.16
2018-05-29T19:00:11.507Z,42.09
2018-05-29T19:02:45.593Z,42.02
2018-05-29T19:08:02.610Z,41.63
2018-05-29T19:10:34.590Z,41.62
2018-05-29T19:13:06.720Z,41.73
2018-05-29T19:15:40.801Z,41.55
2018-05-29T19:18:14.818Z,41.49
2018-05-29T19:20:48.662Z,41.26
2018-05-29T19:23:22.667Z,41.14
2018-05-29T19:25:54.558Z,41.03
2018-05-29T19:28:27.679Z,40.85
2018-05-29T19:31:02.247Z,40.70
2018-05-29T19:33:36.567Z,40.51
2018-05-29T19:36:08.731Z,40.32
2018-05-29T19:38:42.262Z,40.13
2018-05-29T19:41:15.508Z,39.85
2018-05-29T19:43:48.823Z,39.70
2018-05-29T19:46:22.664Z,39.63
2018-05-29T19:48:57.101Z,39.56
2018-05-29T19:51:30.256Z,39.21
2018-05-29T19:54:04.614Z,38.99
2018-05-29T19:56:36.535Z,38.79
2018-05-29T19:59:09.610Z,38.67
2018-05-29T20:01:41.754Z,38.62
2018-05-29T20:04:15.582Z,38.65
2018-05-29T20:06:47.902Z,38.34
2018-05-29T20:09:21.953Z,38.25
2018-05-29T20:11:55.586Z,38.28
2018-05-29T20:14:29.993Z,37.89
2018-05-29T20:17:03.141Z,37.75
2018-05-29T20:19:37.373Z,37.75
2018-05-29T20:22:10.293Z,37.59
2018-05-29T20:24:43.763Z,37.62
2018-05-29T20:27:15.706Z,37.54
2018-05-29T20:29:47.837Z,37.19
2018-05-29T20:32:20.478Z,37.13
2018-05-29T20:34:54.280Z,37.04
2018-05-29T20:37:28.604Z,36.71
2018-05-29T20:40:02.622Z,36.75
2018-05-29T20:42:35.822Z,36.54
2018-05-29T20:45:08.499Z,36.46
2018-05-29T20:47:41.668Z,36.23
2018-05-29T20:50:14.472Z,36.23
2018-05-29T20:55:31.934Z,36.26
2018-05-29T20:58:04.858Z,36.22
2018-05-29T21:00:37.674Z,36.04
2018-05-29T21:03:10.021Z,35.83
2018-05-29T21:05:43.702Z,35.86
2018-05-29T21:08:15.514Z,35.66
2018-05-29T21:10:49.412Z,35.67
2018-05-29T21:13:23.009Z,35.43
2018-05-29T21:15:56.491Z,35.32
2018-05-29T21:18:30.482Z,35.34
2018-05-29T21:21:03.483Z,35.15
2018-05-29T21:23:36.952Z,35.05
2018-05-29T21:26:10.582Z,34.85
2018-05-29T21:28:43.616Z,34.85
2018-05-29T21:31:15.505Z,34.77
2018-05-29T21:33:48.636Z,34.35
2018-05-29T21:36:21.077Z,34.20
2018-05-29T21:38:54.591Z,34.39
2018-05-29T21:41:26.680Z,34.43
2018-05-29T21:43:58.841Z,34.35
2018-05-29T21:46:32.769Z,34.37
2018-05-29T21:49:04.791Z,34.18
2018-05-29T21:51:36.781Z,33.86
2018-05-29T21:54:08.494Z,33.81
2018-05-29T21:56:41.573Z,33.84
2018-05-29T21:59:13.688Z,33.69
2018-05-29T22:01:45.493Z,33.77
2018-05-29T22:04:19.078Z,33.70
2018-05-29T22:06:52.902Z,33.41
2018-05-29T22:09:26.566Z,33.46
2018-05-29T22:11:59.498Z,33.46
2018-05-29T22:14:33.115Z,33.29
2018-05-29T22:17:06.898Z,32.98
2018-05-29T22:20:58.611Z,32.96
2018-05-29T22:23:30.679Z,32.93
2018-05-29T22:26:04.711Z,32.56
2018-05-29T22:28:38.212Z,32.35
2018-05-29T22:31:11.231Z,32.26
2018-05-29T22:33:44.697Z,32.41
2018-05-29T22:36:18.552Z,32.34
2018-05-29T22:38:50.658Z,32.54
2018-05-29T22:41:24.070Z,32.36
2018-05-29T22:43:57.879Z,32.02
2018-05-29T22:46:30.879Z,32.04
2018-05-29T22:49:03.509Z,32.00
2018-05-29T22:51:36.687Z,31.95
2018-05-29T22:54:10.242Z,31.89
2018-05-29T22:56:44.248Z,31.99
2018-05-29T22:59:17.853Z,31.89
2018-05-29T23:01:50.469Z,31.98
2018-05-29T23:04:23.517Z,31.85
2018-05-29T23:06:56.492Z,31.67
2018-05-29T23:09:29.479Z,31.86
2018-05-29T23:12:03.579Z,31.92
2018-05-29T23:14:35.549Z,31.85
2018-05-29T23:17:07.119Z,31.63
2018-05-29T23:19:40.081Z,31.61
2018-05-29T23:22:12.227Z,31.58
2018-05-29T23:24:44.225Z,31.74
2018-05-29T23:27:16.120Z,31.65
2018-05-29T23:29:48.211Z,31.72
2018-05-29T23:32:20.103Z,31.68
2018-05-29T23:37:45.780Z,31.68
2018-05-29T23:40:17.571Z,31.66
2018-05-29T23:42:49.526Z,31.58
2018-05-29T23:45:22.473Z,31.60
2018-05-29T23:47:54.344Z,31.64
2018-05-29T23:50:26.245Z,31.71
2018-05-29T23:52:58.215Z,31.76
2018-05-29T23:55:30.228Z,31.65
2018-05-29T23:58:02.240Z,31.71
